Time;durP1;ratioP1;P1;durP2;ratioP2;P2;SDS_P1;SDS_P2;PMS_P1;PMS_P2;Temp;Humidity;BMP_temperature;BMP_pressure;BME280_temperature;BME280_humidity;BME280_pressure;Samples;Min_cycle;Max_cycle;Signal;HPM_P1;HPM_P2
2021/04/26 00:02:17;;;;;;;12.78;5.12;;;;;;;2.55;51.00;100760.07;2003983;85;21679;-75
2021/04/26 00:05:19;;;;;;;11.33;5.17;;;;;;;2.51;51.06;100760.39;1990762;87;21360;-75
2021/04/26 00:08:20;;;;;;;13.40;5.10;;;;;;;2.47;51.14;100761.03;2007028;87;21137;-74
2021/04/26 00:11:22;;;;;;;12.05;5.37;;;;;;;2.41;51.24;100754.89;2005461;87;21160;-74
2021/04/26 00:14:23;;;;;;;15.85;6.85;;;;;;;2.37;51.25;100755.56;2008492;87;21177;-74
2021/04/26 00:17:25;;;;;;;10.90;4.17;;;;;;;2.31;51.33;100752.47;2013787;86;21301;-74
2021/04/26 00:20:30;;;;;;;13.95;5.97;;;;;;;2.27;51.38;100752.31;2028638;86;21228;-75
2021/04/26 00:23:32;;;;;;;11.60;5.62;;;;;;;2.22;51.48;100758.70;2027112;86;21184;-74
2021/04/26 00:26:33;;;;;;;11.83;5.08;;;;;;;2.18;51.67;100755.89;2022050;85;21621;-75
2021/04/26 00:29:35;;;;;;;11.53;5.40;;;;;;;2.15;51.76;100755.25;2027157;86;21206;-75
2021/04/26 00:32:37;;;;;;;12.33;5.35;;;;;;;2.12;51.84;100758.06;2024680;86;21206;-74
2021/04/26 00:35:38;;;;;;;10.90;4.95;;;;;;;2.08;51.96;100756.56;2024300;86;21216;-75
2021/04/26 00:38:40;;;;;;;13.13;5.12;;;;;;;2.07;52.22;100764.88;2026532;85;21627;-75
2021/04/26 00:41:41;;;;;;;10.23;4.58;;;;;;;2.04;52.30;100754.61;2024665;86;21201;-75
2021/04/26 00:44:43;;;;;;;10.68;4.00;;;;;;;2.05;52.41;100751.52;2022014;86;21251;-75
2021/04/26 00:47:46;;;;;;;10.28;4.37;;;;;;;2.05;52.56;100745.80;2028283;86;21183;-75
2021/04/26 00:50:48;;;;;;;10.68;4.55;;;;;;;2.06;52.97;100745.37;2022074;86;21579;-75
2021/04/26 00:53:50;;;;;;;10.10;5.30;;;;;;;2.05;53.08;100745.80;2022965;86;21227;-74
2021/04/26 00:56:51;;;;;;;11.43;5.22;;;;;;;2.01;53.01;100750.41;2004921;86;21161;-75
2021/04/26 00:59:54;;;;;;;14.50;6.00;;;;;;;1.99;53.38;100744.89;2022957;86;21557;-75
2021/04/26 01:02:56;;;;;;;12.05;6.05;;;;;;;1.98;53.60;100740.61;2024916;86;21176;-74
2021/04/26 01:05:58;;;;;;;13.68;5.20;;;;;;;1.97;53.60;100739.77;2022903;86;21670;-75
2021/04/26 01:09:00;;;;;;;12.00;5.80;;;;;;;1.98;53.77;100735.37;2023103;85;21141;-75
2021/04/26 01:12:40;;;;;;;10.75;5.08;;;;;;;1.97;53.88;100740.21;2024559;86;22011;-75
2021/04/26 01:16:00;;;;;;;10.68;4.97;;;;;;;1.92;54.09;100729.22;2026153;86;21230;-75
2021/04/26 01:19:45;;;;;;;10.18;4.80;;;;;;;1.89;54.07;100732.86;2030249;86;21131;-74
2021/04/26 01:23:30;;;;;;;8.90;4.17;;;;;;;1.88;54.35;100729.02;2022373;86;21163;-76
2021/04/26 01:26:49;;;;;;;9.70;4.45;;;;;;;1.75;54.69;100732.89;2021377;86;21573;-75
2021/04/26 01:30:26;;;;;;;12.53;4.85;;;;;;;1.62;54.80;100728.86;1982388;87;21169;-75
2021/04/26 01:33:50;;;;;;;12.05;5.03;;;;;;;1.57;54.94;100732.22;2027167;86;21151;-75
2021/04/26 01:36:53;;;;;;;10.30;5.08;;;;;;;1.50;54.94;100729.16;2019644;86;21564;-75
2021/04/26 01:39:55;;;;;;;7.62;4.45;;;;;;;1.46;55.03;100728.12;2026883;86;21243;-75
2021/04/26 01:43:00;;;;;;;11.00;4.97;;;;;;;1.45;55.48;100730.38;2023373;85;21201;-75
2021/04/26 01:46:07;;;;;;;9.05;4.72;;;;;;;1.41;55.81;100725.80;2037979;86;21164;-75
2021/04/26 01:49:10;;;;;;;11.57;4.85;;;;;;;1.39;56.22;100726.82;2014408;86;21161;-76
2021/04/26 01:52:12;;;;;;;12.80;5.75;;;;;;;1.31;56.42;100716.82;2041613;86;21149;-75
2021/04/26 01:55:15;;;;;;;9.45;4.62;;;;;;;1.20;56.48;100714.84;2012283;86;21151;-75
2021/04/26 01:58:17;;;;;;;11.25;5.08;;;;;;;1.16;56.54;100715.14;2002416;86;21149;-76
2021/04/26 02:01:23;;;;;;;11.12;5.05;;;;;;;1.07;57.08;100712.58;2023589;86;21180;-75
2021/04/26 02:04:29;;;;;;;9.00;5.10;;;;;;;0.97;57.09;100708.38;2026093;86;21397;-75
2021/04/26 02:07:43;;;;;;;13.90;5.53;;;;;;;0.91;57.67;100700.91;2018778;86;21224;-76
2021/04/26 02:10:50;;;;;;;13.25;5.42;;;;;;;0.90;57.65;100704.44;2018654;85;21180;-75
2021/04/26 02:13:54;;;;;;;12.53;5.12;;;;;;;0.85;57.43;100703.42;2023915;86;21579;-75
2021/04/26 02:16:58;;;;;;;10.25;5.60;;;;;;;0.79;57.58;100705.53;2023795;86;21187;-75
2021/04/26 02:20:00;;;;;;;10.38;4.60;;;;;;;0.72;57.72;100703.75;2013488;87;21147;-76
2021/04/26 02:23:03;;;;;;;7.55;4.28;;;;;;;0.64;57.95;100699.44;2011868;85;21600;-75
2021/04/26 02:26:05;;;;;;;11.90;4.28;;;;;;;0.58;58.02;100699.80;2014414;86;21156;-75
2021/04/26 02:29:12;;;;;;;11.60;4.20;;;;;;;0.53;58.16;100695.30;2012215;86;21170;-76
2021/04/26 02:32:25;;;;;;;8.95;4.08;;;;;;;0.46;58.09;100696.59;2010582;86;21647;-75
2021/04/26 02:35:42;;;;;;;8.73;4.00;;;;;;;0.41;58.16;100697.68;2018253;86;21170;-75
2021/04/26 02:38:52;;;;;;;12.40;4.00;;;;;;;0.34;58.30;100692.45;2031505;86;21174;-76
2021/04/26 02:41:57;;;;;;;7.53;4.00;;;;;;;0.28;58.45;100691.94;2003118;88;21082;-75
2021/04/26 02:45:00;;;;;;;9.70;3.75;;;;;;;0.20;58.41;100703.67;2033215;86;21176;-76
2021/04/26 02:48:04;;;;;;;9.95;4.28;;;;;;;0.15;58.53;100699.16;2013786;87;21200;-76
2021/04/26 02:51:08;;;;;;;7.17;4.12;;;;;;;0.13;58.83;100694.95;2027258;86;21097;-76
2021/04/26 02:54:10;;;;;;;8.48;4.47;;;;;;;0.09;58.97;100695.59;2014857;86;21145;-75
2021/04/26 02:57:14;;;;;;;10.00;4.72;;;;;;;0.04;59.30;100688.95;2013367;86;21383;-75
2021/04/26 03:00:20;;;;;;;9.88;4.90;;;;;;;0.00;59.45;100698.73;1999533;87;21199;-76
2021/04/26 03:03:43;;;;;;;13.25;5.62;;;;;;;-0.04;59.32;100697.20;2030147;86;21228;-73
2021/04/26 03:06:49;;;;;;;13.45;5.42;;;;;;;-0.12;59.06;100696.30;1996425;88;21158;-73
2021/04/26 03:09:55;;;;;;;15.43;5.05;;;;;;;-0.15;59.14;100696.95;2010329;86;21136;-74
2021/04/26 03:12:58;;;;;;;17.07;6.25;;;;;;;-0.19;59.35;100699.36;1998286;87;21685;-73
2021/04/26 03:16:01;;;;;;;13.75;6.12;;;;;;;-0.28;59.40;100698.92;2015500;86;21143;-74
2021/04/26 03:19:06;;;;;;;11.25;5.40;;;;;;;-0.33;59.66;100700.94;1992627;86;21250;-75
2021/04/26 03:22:10;;;;;;;12.93;5.90;;;;;;;-0.38;59.80;100707.33;2026365;85;21192;-75
2021/04/26 03:25:19;;;;;;;10.50;5.15;;;;;;;-0.38;60.01;100708.16;1991672;88;21213;-75
2021/04/26 03:28:22;;;;;;;14.10;5.83;;;;;;;-0.42;60.07;100707.09;2029486;85;21137;-74
2021/04/26 03:31:24;;;;;;;21.73;9.60;;;;;;;-0.40;60.21;100707.39;2017393;86;21200;-75
2021/04/26 03:34:34;;;;;;;41.35;13.58;;;;;;;-0.39;60.28;100702.58;2015228;85;21610;-75
2021/04/26 03:37:39;;;;;;;27.45;10.53;;;;;;;-0.39;60.37;100704.35;2026406;87;21216;-75
2021/04/26 03:40:41;;;;;;;17.07;8.08;;;;;;;-0.44;60.41;100702.45;2025845;86;21158;-75
2021/04/26 03:43:45;;;;;;;19.77;8.23;;;;;;;-0.42;60.41;100700.14;2017218;86;21200;-75
2021/04/26 03:47:00;;;;;;;17.77;7.37;;;;;;;-0.37;60.54;100692.05;2018089;85;21166;-75
2021/04/26 03:50:22;;;;;;;17.17;7.05;;;;;;;-0.36;60.62;100700.27;2012647;86;21809;-75
2021/04/26 03:53:42;;;;;;;18.62;7.83;;;;;;;-0.27;60.66;100703.20;2024517;87;21747;-75
2021/04/26 03:56:49;;;;;;;19.70;8.78;;;;;;;-0.15;60.37;100703.00;2025854;86;21229;-75
2021/04/26 03:59:50;;;;;;;18.42;7.78;;;;;;;-0.07;60.32;100700.81;2002673;87;21588;-75
2021/04/26 04:02:52;;;;;;;22.75;8.48;;;;;;;0.10;60.30;100712.09;1991770;88;21218;-75
2021/04/26 04:05:55;;;;;;;20.68;9.98;;;;;;;0.34;60.36;100709.86;2011904;86;21263;-74
2021/04/26 04:09:17;;;;;;;24.55;12.25;;;;;;;0.70;59.93;100719.97;2015941;85;21577;-75
2021/04/26 04:12:18;;;;;;;19.30;9.78;;;;;;;1.11;59.61;100716.71;2014171;86;21165;-74
2021/04/26 04:15:22;;;;;;;17.95;10.40;;;;;;;1.52;59.34;100723.81;2014579;85;21223;-74
2021/04/26 04:18:24;;;;;;;16.12;8.55;;;;;;;2.07;59.25;100725.62;2024116;86;21193;-74
2021/04/26 04:21:26;;;;;;;16.93;7.17;;;;;;;2.57;58.54;100720.69;2030129;84;22407;-74
2021/04/26 04:24:29;;;;;;;16.05;7.67;;;;;;;3.00;57.99;100733.08;2011827;86;21217;-74
2021/04/26 04:27:31;;;;;;;17.77;9.50;;;;;;;3.52;57.98;100732.16;2019807;86;21203;-74
2021/04/26 04:30:34;;;;;;;25.05;12.70;;;;;;;4.06;57.34;100724.91;2054145;84;21196;-74
2021/04/26 04:33:54;;;;;;;20.37;10.50;;;;;;;4.48;56.57;100724.41;2030864;84;21156;-77
2021/04/26 04:37:00;;;;;;;18.95;9.13;;;;;;;4.85;55.81;100732.20;2001547;84;21253;-73
2021/04/26 04:40:20;;;;;;;21.75;8.83;;;;;;;5.21;55.48;100736.95;2031371;86;21145;-73
2021/04/26 04:43:36;;;;;;;15.70;7.78;;;;;;;5.61;54.93;100737.83;2028787;84;21209;-73
2021/04/26 04:46:38;;;;;;;14.35;6.97;;;;;;;5.43;54.00;100739.23;2011334;84;21602;-72
2021/04/26 04:49:44;;;;;;;12.98;6.12;;;;;;;5.02;53.82;100737.50;2026955;86;21188;-73
2021/04/26 04:52:46;;;;;;;15.35;7.37;;;;;;;4.99;53.81;100736.91;2031058;84;21145;-73
2021/04/26 04:55:48;;;;;;;15.93;8.08;;;;;;;4.94;53.30;100738.55;2057813;83;21827;-80
2021/04/26 04:58:52;;;;;;;12.80;6.60;;;;;;;4.73;53.23;100742.33;2002536;86;21160;-77
2021/04/26 05:01:55;;;;;;;12.68;6.53;;;;;;;4.96;53.62;100741.09;2011275;86;21385;-81
2021/04/26 05:05:15;;;;;;;14.55;7.35;;;;;;;5.10;53.03;100748.29;2057289;85;21665;-76
2021/04/26 05:08:35;;;;;;;13.60;6.80;;;;;;;5.12;52.72;100750.78;2025035;86;21631;-76
2021/04/26 05:11:55;;;;;;;11.93;6.20;;;;;;;4.68;52.41;100748.39;2026845;86;21664;-82
2021/04/26 05:15:04;;;;;;;14.68;6.03;;;;;;;4.31;52.55;100744.52;2028031;86;21188;-76
2021/04/26 05:18:07;;;;;;;15.48;6.03;;;;;;;3.98;52.76;100750.39;2011847;86;21156;-75
2021/04/26 05:21:09;;;;;;;14.00;6.30;;;;;;;3.68;52.73;100739.78;2005506;87;21220;-85
2021/04/26 05:24:11;;;;;;;13.55;6.72;;;;;;;3.53;53.14;100744.31;2000597;85;21216;-79
2021/04/26 05:27:13;;;;;;;12.43;6.10;;;;;;;3.40;53.17;100751.34;2007340;85;21546;-83
2021/04/26 05:30:17;;;;;;;10.28;5.08;;;;;;;3.43;53.39;100749.82;2004350;87;21630;-83
2021/04/26 05:33:19;;;;;;;11.43;6.10;;;;;;;3.50;53.38;100746.32;2006745;85;21149;-83
2021/04/26 05:36:23;;;;;;;14.50;5.47;;;;;;;3.72;53.74;100749.14;1970149;87;21188;-83
2021/04/26 05:39:29;;;;;;;14.28;5.87;;;;;;;4.27;53.35;100749.13;1992091;87;21213;-82
2021/04/26 05:42:31;;;;;;;11.05;5.87;;;;;;;4.68;52.83;100740.51;2021719;87;21219;-83
2021/04/26 05:45:33;;;;;;;12.10;6.10;;;;;;;5.22;52.86;100737.79;1987108;87;21200;-78
2021/04/26 05:48:37;;;;;;;14.25;5.37;;;;;;;5.75;51.95;100743.33;1998602;85;21208;-83
2021/04/26 05:51:38;;;;;;;10.78;5.47;;;;;;;6.29;51.54;100735.97;1989641;87;21573;-82
2021/04/26 05:54:40;;;;;;;7.35;4.85;;;;;;;6.83;50.76;100738.16;1981081;88;21524;-77
2021/04/26 05:57:42;;;;;;;8.75;5.50;;;;;;;7.24;49.83;100732.55;2004861;86;21231;-79
2021/04/26 06:00:43;;;;;;;9.43;5.55;;;;;;;7.47;48.97;100732.73;1990615;86;22882;-79
2021/04/26 06:03:45;;;;;;;12.88;5.00;;;;;;;7.82;49.15;100736.27;1991166;87;21248;-84
2021/04/26 06:06:47;;;;;;;13.32;5.40;;;;;;;7.89;48.43;100727.34;2021642;86;21472;-83
2021/04/26 06:09:49;;;;;;;10.30;5.28;;;;;;;8.21;47.17;100731.09;2006581;87;21162;-82
2021/04/26 06:12:51;;;;;;;10.18;5.30;;;;;;;8.26;46.66;100730.69;2010433;86;21109;-84
2021/04/26 06:15:52;;;;;;;10.35;5.22;;;;;;;8.55;47.02;100737.84;2008050;86;21180;-78
2021/04/26 06:18:54;;;;;;;11.55;5.40;;;;;;;8.86;46.24;100730.10;2051747;83;21154;-79
2021/04/26 06:21:55;;;;;;;9.68;5.40;;;;;;;9.25;46.75;100736.67;2011920;85;21141;-82
2021/04/26 06:24:57;;;;;;;12.63;5.12;;;;;;;9.77;45.79;100728.25;2040934;85;21230;-82
2021/04/26 06:28:00;;;;;;;12.00;4.92;;;;;;;10.04;45.32;100728.75;2017406;86;21214;-81
2021/04/26 06:31:01;;;;;;;11.53;5.35;;;;;;;10.23;45.02;100729.96;2021214;86;21177;-82
2021/04/26 06:34:04;;;;;;;8.95;4.42;;;;;;;10.42;45.15;100726.88;2024022;86;21155;-81
2021/04/26 06:37:05;;;;;;;11.35;4.62;;;;;;;10.71;44.43;100727.47;2020004;85;21198;-84
2021/04/26 06:40:09;;;;;;;8.90;3.72;;;;;;;10.71;42.44;100724.81;2020372;86;21553;-82
2021/04/26 06:43:12;;;;;;;5.50;3.58;;;;;;;10.66;43.41;100723.11;2018361;86;21760;-81
2021/04/26 06:46:13;;;;;;;5.95;3.35;;;;;;;10.73;43.10;100724.67;2019553;86;21096;-81
2021/04/26 06:49:19;;;;;;;5.22;2.55;;;;;;;10.98;43.04;100718.58;2042697;85;21089;-81
2021/04/26 06:52:18;;;;;;;4.65;3.20;;;;;;;11.27;42.57;100709.97;2020246;85;21232;-82
2021/04/26 06:55:21;;;;;;;6.62;2.80;;;;;;;11.51;41.95;100707.92;2018026;86;21296;-83
2021/04/26 06:58:23;;;;;;;8.05;3.27;;;;;;;11.53;41.40;100704.12;2042102;85;21540;-82
2021/04/26 07:01:25;;;;;;;4.55;2.05;;;;;;;11.76;41.65;100700.89;2044656;85;21660;-82
2021/04/26 07:04:27;;;;;;;6.87;2.67;;;;;;;12.00;39.43;100695.70;2046875;85;21106;-79
2021/04/26 07:07:29;;;;;;;4.35;2.20;;;;;;;11.77;39.31;100698.09;2052577;85;21191;-80
2021/04/26 07:10:30;;;;;;;4.83;2.60;;;;;;;11.50;39.15;100690.33;2051952;85;21547;-80
2021/04/26 07:13:32;;;;;;;3.30;1.70;;;;;;;11.39;39.54;100699.39;2012698;86;21189;-80
2021/04/26 07:16:33;;;;;;;4.92;1.75;;;;;;;11.44;38.94;100686.47;2009962;86;21133;-80
2021/04/26 07:19:37;;;;;;;6.97;2.42;;;;;;;11.30;38.95;100683.91;2019356;86;22580;-80
2021/04/26 07:22:39;;;;;;;6.75;2.27;;;;;;;11.27;39.41;100683.40;2026433;86;21186;-80
2021/04/26 07:25:41;;;;;;;6.28;3.02;;;;;;;11.38;38.98;100687.94;2046239;85;21161;-81
2021/04/26 07:28:42;;;;;;;4.20;2.30;;;;;;;11.65;39.06;100678.91;2051972;85;21166;-81
2021/04/26 07:31:45;;;;;;;7.67;2.45;;;;;;;11.71;38.13;100681.42;2029385;86;21570;-80
2021/04/26 07:34:47;;;;;;;4.12;2.20;;;;;;;11.92;37.69;100674.40;2025381;85;21156;-81
2021/04/26 07:37:48;;;;;;;4.40;2.30;;;;;;;11.85;38.14;100673.34;2030611;86;21117;-81
2021/04/26 07:40:50;;;;;;;8.80;2.75;;;;;;;11.75;35.85;100671.33;2026555;86;21198;-80
2021/04/26 07:43:52;;;;;;;7.37;2.10;;;;;;;10.98;36.35;100684.52;2032126;86;21203;-71
2021/04/26 07:46:55;;;;;;;4.53;2.20;;;;;;;10.16;37.42;100685.13;2029315;86;21159;-73
2021/04/26 07:49:57;;;;;;;3.58;1.77;;;;;;;9.53;37.76;100686.40;2029242;84;21674;-73
2021/04/26 07:52:59;;;;;;;3.75;2.00;;;;;;;9.10;38.48;100678.05;2027582;84;21177;-74
2021/04/26 07:56:01;;;;;;;5.40;1.87;;;;;;;9.44;38.95;100680.16;2024649;86;21368;-72
2021/04/26 07:59:03;;;;;;;6.92;2.22;;;;;;;9.60;38.21;100678.19;2022858;86;21161;-74
2021/04/26 08:02:04;;;;;;;4.25;2.08;;;;;;;9.49;37.94;100683.21;2029512;84;21140;-79
2021/04/26 08:05:07;;;;;;;6.28;2.40;;;;;;;9.12;38.10;100668.62;2025825;84;21110;-75
2021/04/26 08:08:09;;;;;;;3.52;1.55;;;;;;;9.55;38.67;100669.88;2026522;86;21160;-79
2021/04/26 08:11:11;;;;;;;3.00;1.70;;;;;;;10.04;37.36;100673.08;2028631;86;21135;-77
2021/04/26 08:14:13;;;;;;;2.30;1.52;;;;;;;9.48;36.59;100683.34;2027303;86;21107;-75
2021/04/26 08:17:14;;;;;;;6.42;2.15;;;;;;;9.70;37.98;100672.86;2028406;86;21612;-75
2021/04/26 08:20:16;;;;;;;4.97;2.00;;;;;;;10.18;37.33;100675.70;2019384;86;21189;-75
2021/04/26 08:23:18;;;;;;;2.50;1.72;;;;;;;10.69;36.87;100677.67;2015958;85;21114;-76
2021/04/26 08:26:20;;;;;;;4.20;2.15;;;;;;;11.07;35.89;100665.52;2015439;86;21161;-77
2021/04/26 08:29:21;;;;;;;4.97;1.57;;;;;;;11.29;36.54;100675.61;2019227;86;21667;-76
2021/04/26 08:32:23;;;;;;;1.92;1.40;;;;;;;11.42;35.44;100679.98;2016364;86;21227;-75
2021/04/26 08:35:25;;;;;;;1.75;1.40;;;;;;;11.42;34.02;100675.99;2015596;86;21121;-76
2021/04/26 08:38:27;;;;;;;1.70;1.57;;;;;;;11.58;33.91;100678.41;2016320;86;21170;-76
2021/04/26 08:41:30;;;;;;;2.92;1.98;;;;;;;11.69;33.95;100664.00;2016580;86;21221;-75
2021/04/26 08:44:33;;;;;;;5.58;1.62;;;;;;;11.88;34.34;100671.71;2018476;85;21238;-78
2021/04/26 08:47:38;;;;;;;3.02;1.30;;;;;;;12.17;33.90;100681.12;2015151;86;21550;-76
2021/04/26 08:50:40;;;;;;;4.53;2.08;;;;;;;11.56;32.87;100673.23;1990470;86;21219;-77
2021/04/26 08:53:42;;;;;;;2.40;1.42;;;;;;;11.56;32.87;100673.23;2028939;86;21180;-76
2021/04/26 08:56:45;;;;;;;3.85;1.82;;;;;;;10.92;32.47;100675.86;1987383;88;21635;-76
2021/04/26 08:59:47;;;;;;;3.65;1.62;;;;;;;10.98;33.02;100675.23;2015495;86;21195;-75
2021/04/26 09:03:02;;;;;;;2.22;1.62;;;;;;;11.09;32.37;100671.48;2011241;85;21321;-75
2021/04/26 09:06:12;;;;;;;3.65;1.50;;;;;;;11.60;32.74;100669.75;2015848;86;21216;-75
2021/04/26 09:09:13;;;;;;;2.42;1.60;;;;;;;11.89;31.31;100668.91;2013769;85;21156;-79
2021/04/26 09:12:25;;;;;;;4.47;1.67;;;;;;;11.87;30.50;100678.86;2015951;85;21577;-75
2021/04/26 09:15:27;;;;;;;2.62;1.80;;;;;;;11.82;31.47;100672.33;2014912;86;21161;-77
2021/04/26 09:18:50;;;;;;;4.17;1.70;;;;;;;12.34;31.77;100674.82;2016155;86;21587;-78
2021/04/26 09:21:52;;;;;;;6.00;1.92;;;;;;;12.70;31.16;100664.69;2027785;86;21161;-76
2021/04/26 09:24:54;;;;;;;5.55;1.80;;;;;;;13.18;31.71;100663.45;2028215;86;21225;-77
2021/04/26 09:28:13;;;;;;;4.33;1.55;;;;;;;13.56;30.86;100661.02;2020733;86;21287;-78
2021/04/26 09:31:15;;;;;;;3.08;1.40;;;;;;;13.07;29.61;100665.15;2049183;85;21631;-74
2021/04/26 09:34:45;;;;;;;2.37;1.70;;;;;;;13.04;29.44;100662.31;2031080;85;21267;-73
2021/04/26 09:37:48;;;;;;;3.67;1.90;;;;;;;13.22;28.25;100660.27;2022141;86;21563;-75
2021/04/26 09:41:12;;;;;;;2.45;1.50;;;;;;;13.41;29.30;100659.58;2025366;85;21172;-72
2021/04/26 09:44:14;;;;;;;2.70;1.65;;;;;;;13.65;28.77;100647.47;2000803;86;21125;-73
2021/04/26 09:47:21;;;;;;;7.15;3.10;;;;;;;13.84;28.31;100649.39;2028101;84;21138;-73
2021/04/26 09:50:23;;;;;;;2.75;1.40;;;;;;;13.75;28.47;100649.94;2029357;84;21123;-74
2021/04/26 09:53:27;;;;;;;11.28;4.85;;;;;;;13.24;28.58;100646.27;2047477;85;21537;-73
2021/04/26 09:56:36;;;;;;;11.33;3.62;;;;;;;12.75;28.89;100642.86;2044167;85;21179;-75
2021/04/26 09:59:36;;;;;;;2.85;1.62;;;;;;;12.25;29.09;100639.89;2029485;84;21140;-74
2021/04/26 10:02:38;;;;;;;2.15;1.50;;;;;;;12.26;29.54;100644.20;2030677;84;21556;-74
2021/04/26 10:05:46;;;;;;;2.52;1.50;;;;;;;12.33;29.16;100641.20;2029281;86;21559;-74
2021/04/26 10:08:52;;;;;;;3.20;1.80;;;;;;;12.44;28.56;100637.39;2028111;86;21177;-72
2021/04/26 10:11:54;;;;;;;3.15;1.92;;;;;;;12.30;27.95;100629.09;2032275;86;21175;-74
2021/04/26 10:14:56;;;;;;;2.95;1.95;;;;;;;11.85;28.70;100634.78;2061786;85;21577;-73
2021/04/26 10:18:00;;;;;;;2.85;1.35;;;;;;;11.52;28.75;100629.38;2028274;86;21254;-74
2021/04/26 10:21:25;;;;;;;3.98;1.77;;;;;;;11.62;28.66;100622.09;2039605;85;21211;-74
2021/04/26 10:24:31;;;;;;;2.05;1.55;;;;;;;11.62;28.66;100622.09;2031036;84;21145;-79
2021/04/26 10:27:40;;;;;;;2.83;1.75;;;;;;;11.50;28.51;100615.91;2039867;84;21176;-79
2021/04/26 10:31:07;;;;;;;5.45;1.30;;;;;;;11.85;28.74;100612.18;2030907;84;21198;-80
2021/04/26 10:34:09;;;;;;;1.87;1.50;;;;;;;12.18;28.50;100613.61;1999462;86;21167;-78
2021/04/26 10:37:19;;;;;;;4.78;1.80;;;;;;;12.43;28.67;100607.28;2012847;86;21153;-88
2021/04/26 10:40:23;;;;;;;4.80;1.70;;;;;;;12.67;28.20;100602.94;2061695;84;21132;-81
2021/04/26 10:43:30;;;;;;;5.08;1.50;;;;;;;12.87;27.82;100593.59;2067779;85;21179;-83
2021/04/26 10:46:32;;;;;;;6.95;1.90;;;;;;;12.96;28.42;100597.90;2064905;84;21203;-79
2021/04/26 10:49:33;;;;;;;3.10;1.37;;;;;;;12.70;27.80;100595.46;2069128;83;21145;-79
2021/04/26 10:52:54;;;;;;;2.87;1.42;;;;;;;12.47;27.85;100596.66;2067175;84;21154;-79
2021/04/26 10:55:56;;;;;;;6.12;1.25;;;;;;;12.72;28.19;100589.95;2051967;83;21124;-84
2021/04/26 10:59:21;;;;;;;4.20;1.52;;;;;;;13.16;28.30;100593.52;2050221;83;21165;-81
2021/04/26 11:02:32;;;;;;;2.95;1.95;;;;;;;13.44;28.26;100587.27;2072094;85;21183;-80
2021/04/26 11:05:43;;;;;;;2.25;1.40;;;;;;;13.14;27.57;100578.19;2071144;84;21123;-81
2021/04/26 11:08:52;;;;;;;4.58;1.77;;;;;;;12.60;27.39;100576.16;2055401;84;21135;-80
2021/04/26 11:11:59;;;;;;;2.77;2.08;;;;;;;12.44;28.00;100570.86;2046951;84;21129;-81
2021/04/26 11:15:14;;;;;;;4.00;2.35;;;;;;;12.50;27.73;100572.37;2041562;84;21152;-83
2021/04/26 11:18:16;;;;;;;2.62;1.72;;;;;;;12.02;27.74;100565.20;2037653;84;22222;-80
2021/04/26 11:21:39;;;;;;;2.98;2.00;;;;;;;11.79;28.77;100579.09;2072194;84;21223;-81
2021/04/26 11:24:48;;;;;;;2.72;2.02;;;;;;;11.82;28.82;100565.48;2029897;86;21161;-88
2021/04/26 11:27:55;;;;;;;2.80;1.77;;;;;;;11.18;28.42;100565.66;2036121;84;21132;-83
2021/04/26 11:30:57;;;;;;;2.98;1.80;;;;;;;10.87;29.18;100570.15;2028679;85;21609;-82
2021/04/26 11:33:58;;;;;;;5.08;1.80;;;;;;;10.65;29.26;100563.55;2053039;84;21248;-80
2021/04/26 11:37:08;;;;;;;2.22;1.50;;;;;;;10.47;29.33;100564.07;2052125;84;21144;-80
2021/04/26 11:40:27;;;;;;;7.05;2.10;;;;;;;10.48;29.59;100568.41;2072826;83;21116;-82
2021/04/26 11:43:29;;;;;;;1.67;1.20;;;;;;;10.50;29.55;100555.33;2033069;86;21141;-81
2021/04/26 11:46:31;;;;;;;3.10;1.47;;;;;;;10.17;28.04;100556.87;2054883;83;21179;-80
2021/04/26 11:49:41;;;;;;;3.83;1.80;;;;;;;9.86;29.11;100552.45;2050322;83;21742;-79
2021/04/26 11:52:44;;;;;;;1.80;1.62;;;;;;;9.99;29.66;100554.21;2059284;84;21153;-79
2021/04/26 11:55:47;;;;;;;3.10;1.50;;;;;;;10.36;29.46;100531.16;2040664;84;21190;-80
2021/04/26 11:59:05;;;;;;;2.40;1.32;;;;;;;10.74;29.62;100537.38;2033457;84;21188;-79
2021/04/26 12:02:06;;;;;;;4.70;2.60;;;;;;;10.90;29.49;100531.84;2033916;84;21522;-79
2021/04/26 12:05:29;;;;;;;4.53;2.10;;;;;;;10.77;29.27;100526.95;2076799;83;22289;-79
2021/04/26 12:08:45;;;;;;;2.52;1.50;;;;;;;10.66;29.48;100520.08;2026407;85;21246;-84
2021/04/26 12:11:56;;;;;;;1.75;1.55;;;;;;;10.84;29.54;100519.17;2026111;85;21175;-83
2021/04/26 12:15:09;;;;;;;2.72;1.40;;;;;;;11.26;29.30;100522.33;2052769;83;21163;-76
2021/04/26 12:18:10;;;;;;;4.03;1.70;;;;;;;11.47;28.80;100516.09;2033015;84;21192;-76
2021/04/26 12:21:12;;;;;;;6.12;1.55;;;;;;;11.64;28.66;100509.80;2031592;84;21140;-79
2021/04/26 12:24:13;;;;;;;2.15;1.20;;;;;;;11.61;28.63;100502.16;1998901;86;21212;-76
2021/04/26 12:27:19;;;;;;;3.67;1.30;;;;;;;11.33;27.49;100499.45;1984317;86;21192;-76
2021/04/26 12:30:25;;;;;;;5.53;1.65;;;;;;;11.09;28.67;100501.02;1989869;86;21242;-75
2021/04/26 12:33:30;;;;;;;2.65;1.67;;;;;;;10.96;29.00;100498.83;2021565;84;21156;-85
2021/04/26 12:36:32;;;;;;;3.35;1.80;;;;;;;10.90;28.84;100484.87;2033421;85;21194;-77
2021/04/26 12:39:34;;;;;;;3.40;2.00;;;;;;;10.70;29.02;100478.98;2021931;84;21223;-76
2021/04/26 12:42:36;;;;;;;2.77;1.70;;;;;;;10.65;28.71;100482.60;2035154;84;21884;-84
2021/04/26 12:45:45;;;;;;;3.42;1.75;;;;;;;10.79;29.06;100483.01;2037080;84;21134;-75
2021/04/26 12:48:48;;;;;;;4.75;1.90;;;;;;;10.71;29.21;100481.14;2041650;84;25630;-76
2021/04/26 12:51:49;;;;;;;2.77;1.17;;;;;;;10.55;28.76;100478.72;2032312;84;21659;-75
2021/04/26 12:55:08;;;;;;;4.78;1.92;;;;;;;10.28;28.39;100469.13;2035160;84;21637;-77
2021/04/26 12:58:21;;;;;;;3.72;1.40;;;;;;;9.96;29.03;100463.56;2036148;84;21146;-77
2021/04/26 13:01:25;;;;;;;5.12;1.80;;;;;;;9.65;28.80;100463.97;2035024;84;21152;-75
2021/04/26 13:04:34;;;;;;;2.30;1.37;;;;;;;9.55;29.40;100458.77;2035364;84;21762;-75
2021/04/26 13:07:36;;;;;;;2.45;1.40;;;;;;;9.60;29.79;100454.31;2035077;84;21091;-75
2021/04/26 13:10:38;;;;;;;2.17;1.50;;;;;;;9.94;30.28;100448.30;2040158;84;21178;-85
2021/04/26 13:13:55;;;;;;;2.22;1.10;;;;;;;10.11;29.31;100440.82;2043204;84;21181;-77
2021/04/26 13:17:07;;;;;;;3.45;1.60;;;;;;;10.26;29.49;100435.77;2025274;84;21133;-76
2021/04/26 13:20:23;;;;;;;2.12;1.20;;;;;;;10.62;29.44;100432.50;2035096;85;21357;-77
2021/04/26 13:23:27;;;;;;;2.92;1.42;;;;;;;10.72;29.03;100430.53;2027966;85;21574;-75
2021/04/26 13:26:32;;;;;;;2.62;1.50;;;;;;;10.92;29.16;100436.41;2028254;84;21206;-83
2021/04/26 13:29:36;;;;;;;2.75;1.70;;;;;;;11.10;29.12;100425.69;2042867;84;21180;-76
2021/04/26 13:32:39;;;;;;;3.08;1.70;;;;;;;11.28;28.94;100422.89;2035351;84;21133;-77
2021/04/26 13:35:42;;;;;;;1.70;1.40;;;;;;;11.26;28.08;100423.55;2029382;84;21117;-78
2021/04/26 13:38:44;;;;;;;3.72;1.20;;;;;;;11.06;28.14;100415.05;2042159;84;21123;-77
2021/04/26 13:41:47;;;;;;;4.90;1.57;;;;;;;10.98;28.66;100407.91;2045319;84;21588;-79
2021/04/26 13:44:49;;;;;;;1.55;1.32;;;;;;;11.14;28.29;100407.09;2037091;84;21143;-80
2021/04/26 13:47:51;;;;;;;2.90;1.20;;;;;;;11.16;27.31;100403.78;2038718;85;21601;-77
2021/04/26 13:50:53;;;;;;;3.37;2.10;;;;;;;11.13;28.30;100399.31;2043870;84;21176;-83
2021/04/26 13:53:55;;;;;;;8.18;1.70;;;;;;;11.21;28.66;100405.46;2039520;84;21113;-78
2021/04/26 13:56:57;;;;;;;2.92;1.30;;;;;;;11.32;28.90;100401.66;2041005;84;21156;-78
2021/04/26 13:59:58;;;;;;;3.87;2.70;;;;;;;11.28;27.80;100396.83;2038657;84;21156;-79
2021/04/26 14:03:02;;;;;;;2.92;1.55;;;;;;;11.17;28.77;100390.83;2031432;84;21203;-78
2021/04/26 14:06:04;;;;;;;2.70;1.40;;;;;;;10.99;28.07;100388.31;2033091;84;21256;-82
2021/04/26 14:09:10;;;;;;;2.87;1.70;;;;;;;10.83;27.69;100387.45;2040253;84;21851;-76
2021/04/26 14:12:12;;;;;;;6.83;1.70;;;;;;;10.57;27.63;100390.19;2035092;84;21204;-81
2021/04/26 14:15:15;;;;;;;14.85;2.27;;;;;;;10.44;28.62;100385.31;2040514;84;21136;-79
2021/04/26 14:18:17;;;;;;;2.25;1.42;;;;;;;10.43;28.47;100379.69;2039022;84;21719;-83
2021/04/26 14:21:20;;;;;;;1.62;1.27;;;;;;;10.47;28.88;100383.20;2043600;84;21127;-82
2021/04/26 14:24:25;;;;;;;2.05;1.25;;;;;;;10.64;28.80;100375.27;2039073;84;21192;-79